Time;durP1;ratioP1;P1;durP2;ratioP2;P2;SDS_P1;SDS_P2;PMS_P1;PMS_P2;Temp;Humidity;BMP_temperature;BMP_pressure;BME280_temperature;BME280_humidity;BME280_pressure;Samples;Min_cycle;Max_cycle;Signal;HPM_P1;HPM_P2
2023/12/26 00:00:50;;;;;;;4.40;1.10;;;;;;;6.89;100.00;100064.16;5035472;28;20903;-78
2023/12/26 00:03:18;;;;;;;4.23;1.13;;;;;;;6.99;100.00;100086.78;5031033;28;20453;-79
2023/12/26 00:05:48;;;;;;;4.93;1.20;;;;;;;6.56;100.00;99976.75;5033891;28;20500;-80
2023/12/26 00:08:21;;;;;;;5.55;1.50;;;;;;;7.66;100.00;100188.63;5034739;28;20470;-78
2023/12/26 00:10:51;;;;;;;6.60;1.10;;;;;;;7.55;100.00;100127.78;5048134;28;20876;-78
2023/12/26 00:13:21;;;;;;;6.03;1.20;;;;;;;6.21;100.00;99902.13;5033508;28;20450;-78
2023/12/26 00:15:55;;;;;;;4.37;1.40;;;;;;;7.12;100.00;100063.91;5035590;28;20435;-78
2023/12/26 00:18:26;;;;;;;5.07;1.10;;;;;;;7.56;100.00;100118.78;5052365;28;20439;-78
2023/12/26 00:20:53;;;;;;;3.80;1.10;;;;;;;7.02;100.00;100035.72;5045473;28;20438;-79
2023/12/26 00:23:26;;;;;;;5.40;1.20;;;;;;;8.19;100.00;100188.06;5035097;28;20963;-79
2023/12/26 00:25:53;;;;;;;5.70;1.13;;;;;;;8.22;100.00;100236.63;5030011;28;21019;-78
2023/12/26 00:28:19;;;;;;;4.50;1.03;;;;;;;7.58;100.00;100157.59;5030914;28;20443;-78
2023/12/26 00:30:53;;;;;;;4.60;1.20;;;;;;;6.85;100.00;99985.56;5031121;28;20473;-79
2023/12/26 00:33:24;;;;;;;10.23;1.43;;;;;;;7.00;100.00;100013.78;5022870;28;20196;-82
2023/12/26 00:35:54;;;;;;;6.95;1.20;;;;;;;7.37;100.00;100088.25;5018503;28;20506;-79
2023/12/26 00:38:24;;;;;;;4.63;1.00;;;;;;;7.53;100.00;100119.97;5029548;28;20359;-78
2023/12/26 00:40:55;;;;;;;3.73;1.00;;;;;;;6.70;100.00;99953.69;5029751;28;20488;-77
2023/12/26 00:43:25;;;;;;;3.40;0.80;;;;;;;7.21;100.00;100049.41;5032404;28;20799;-79
2023/12/26 00:45:55;;;;;;;4.70;1.23;;;;;;;6.32;100.00;99880.28;5046187;28;20537;-79
2023/12/26 00:48:26;;;;;;;5.30;1.00;;;;;;;7.64;100.00;100094.59;5028364;28;20434;-78
2023/12/26 00:50:56;;;;;;;4.80;0.93;;;;;;;7.63;100.00;100125.78;5043126;28;21040;-80
2023/12/26 00:53:24;;;;;;;4.30;1.10;;;;;;;8.37;100.00;100183.03;5029027;28;20454;-78
2023/12/26 00:55:54;;;;;;;5.33;1.07;;;;;;;8.14;100.00;100153.97;5026591;28;23949;-79
2023/12/26 00:58:22;;;;;;;4.33;0.93;;;;;;;7.34;100.00;100019.28;5026072;28;20439;-79
2023/12/26 01:00:55;;;;;;;4.95;1.20;;;;;;;7.60;100.00;100066.63;5027544;28;20461;-79
2023/12/26 01:03:28;;;;;;;5.40;1.23;;;;;;;6.74;100.00;99936.28;5027263;28;20466;-79
2023/12/26 01:06:01;;;;;;;5.73;1.10;;;;;;;7.23;100.00;100002.84;5025143;28;20442;-80
2023/12/26 01:08:34;;;;;;;6.07;1.40;;;;;;;8.23;100.00;100187.50;5044742;28;20443;-80
2023/12/26 01:11:00;;;;;;;6.00;1.47;;;;;;;7.25;100.00;100026.63;5028524;28;20527;-78
2023/12/26 01:13:34;;;;;;;5.70;1.40;;;;;;;8.05;100.00;100171.19;5029661;28;20451;-79
2023/12/26 01:16:04;;;;;;;5.80;1.00;;;;;;;6.84;100.00;99941.28;5026465;28;20571;-78
2023/12/26 01:18:35;;;;;;;4.73;1.30;;;;;;;6.87;100.00;99941.72;5028251;28;20442;-77
2023/12/26 01:21:05;;;;;;;4.40;0.90;;;;;;;7.50;100.00;100044.84;5027570;28;21005;-78
2023/12/26 01:23:35;;;;;;;4.70;1.17;;;;;;;6.98;100.00;99991.00;5024113;28;20800;-80
2023/12/26 01:26:06;;;;;;;5.30;1.33;;;;;;;7.13;100.00;100017.53;5027079;28;20434;-80
2023/12/26 01:28:34;;;;;;;7.20;1.10;;;;;;;7.82;100.00;100110.88;5027943;28;25101;-78
2023/12/26 01:31:04;;;;;;;4.53;1.30;;;;;;;7.10;100.00;100023.28;5027121;28;20995;-79
2023/12/26 01:33:34;;;;;;;6.07;1.10;;;;;;;6.94;100.00;99993.25;5028983;28;20489;-78
2023/12/26 01:36:04;;;;;;;3.90;1.00;;;;;;;8.23;100.00;100184.00;5043585;28;20565;-77
2023/12/26 01:38:33;;;;;;;8.10;0.90;;;;;;;7.23;100.00;100056.19;5026981;28;20446;-77
2023/12/26 01:41:03;;;;;;;5.40;1.10;;;;;;;8.40;100.00;100262.00;5029283;28;21025;-78
2023/12/26 01:43:31;;;;;;;;;;;;;;;9.35;100.00;100380.66;5024891;28;20004;-78
2023/12/26 01:45:59;;;;;;;;;;;;;;;9.39;100.00;100385.38;5028241;28;20444;-78
2023/12/26 01:48:34;;;;;;;;;;;;;;;9.35;100.00;100383.34;5029027;28;20133;-79
2023/12/26 01:51:06;;;;;;;;;;;;;;;9.34;100.00;100381.66;5025541;28;20393;-79
2023/12/26 01:53:38;;;;;;;;;;;;;;;9.37;100.00;100387.44;5042469;28;19921;-78
2023/12/26 01:56:10;;;;;;;7.47;1.10;;;;;;;7.45;100.00;100064.91;5028805;28;20846;-76
2023/12/26 01:58:42;;;;;;;4.47;0.97;;;;;;;8.30;100.00;100211.56;5028137;28;20449;-77
2023/12/26 02:01:10;;;;;;;6.37;1.10;;;;;;;8.36;100.00;100224.13;5027680;28;20518;-77
2023/12/26 02:03:38;;;;;;;6.85;1.15;;;;;;;6.91;100.00;99990.13;5026340;28;20446;-77
2023/12/26 02:06:07;;;;;;;4.77;0.93;;;;;;;8.02;100.00;100190.28;5044909;28;20550;-78
2023/12/26 02:08:41;;;;;;;7.13;1.20;;;;;;;7.85;100.00;100187.91;5027951;28;20442;-80
2023/12/26 02:11:15;;;;;;;5.65;1.25;;;;;;;6.84;100.00;100022.06;5027351;28;20918;-79
2023/12/26 02:13:43;;;;;;;6.83;1.20;;;;;;;7.11;100.00;100068.41;5028346;28;21025;-78
2023/12/26 02:16:25;;;;;;;9.70;1.63;;;;;;;6.81;100.00;99989.66;5025616;28;20254;-78
2023/12/26 02:18:55;;;;;;;10.10;1.60;;;;;;;8.33;100.00;100283.31;5028698;28;20958;-79
2023/12/26 02:21:27;;;;;;;11.67;2.10;;;;;;;8.23;100.00;100248.94;5025565;28;20444;-77
2023/12/26 02:23:56;;;;;;;14.10;1.95;;;;;;;7.75;100.00;100195.44;5028763;28;20442;-78
2023/12/26 02:26:24;;;;;;;13.80;1.70;;;;;;;8.23;100.00;100291.69;5029365;28;20463;-79
2023/12/26 02:28:56;;;;;;;7.07;1.50;;;;;;;6.87;100.00;100088.34;5027423;28;20435;-79
2023/12/26 02:31:27;;;;;;;7.23;1.53;;;;;;;8.36;100.00;100274.88;5043193;28;20477;-78
2023/12/26 02:33:58;;;;;;;11.55;2.20;;;;;;;7.24;100.00;100119.19;5026283;28;20462;-79
2023/12/26 02:36:36;;;;;;;9.27;1.57;;;;;;;6.87;100.00;100079.50;5030242;28;20494;-80
2023/12/26 02:39:15;;;;;;;9.13;1.70;;;;;;;8.34;100.00;100299.16;5045315;28;20453;-78
2023/12/26 02:41:45;;;;;;;12.93;2.47;;;;;;;7.69;100.00;100230.94;5030679;28;21866;-78
2023/12/26 02:44:14;;;;;;;12.00;2.53;;;;;;;8.20;100.00;100312.63;5030806;28;20469;-78
2023/12/26 02:46:44;;;;;;;17.17;2.33;;;;;;;6.97;100.00;100120.81;5028044;28;20470;-77
2023/12/26 02:49:14;;;;;;;11.60;2.40;;;;;;;8.13;100.00;100296.56;5028920;28;20445;-80
2023/12/26 02:51:45;;;;;;;7.15;1.60;;;;;;;6.90;100.00;100122.59;5029450;28;20458;-80
2023/12/26 02:54:13;;;;;;;11.23;2.17;;;;;;;7.23;100.00;100151.38;5030323;28;20209;-77
2023/12/26 02:56:46;;;;;;;22.50;2.70;;;;;;;6.69;100.00;100067.47;5030431;28;20466;-78
2023/12/26 02:59:17;;;;;;;13.10;2.50;;;;;;;8.13;100.00;100308.06;5041149;28;20465;-77
2023/12/26 03:01:47;;;;;;;17.47;2.43;;;;;;;6.67;100.00;100120.13;5030333;28;20501;-77
2023/12/26 03:04:21;;;;;;;12.00;3.50;;;;;;;7.63;100.00;100293.09;5033856;28;20434;-77
2023/12/26 03:06:49;;;;;;;15.05;2.40;;;;;;;7.75;100.00;100290.72;5028816;28;20450;-78
2023/12/26 03:09:22;;;;;;;11.60;2.43;;;;;;;6.70;100.00;100102.94;5035447;28;20306;-78
2023/12/26 03:11:47;;;;;;;11.00;2.70;;;;;;;7.90;100.00;100337.69;5045787;23;20501;-77
2023/12/26 03:14:14;;;;;;;11.53;2.37;;;;;;;6.40;100.00;100107.59;5007968;28;20468;-77
2023/12/26 03:16:39;;;;;;;16.63;2.53;;;;;;;7.35;100.00;100301.09;4996090;28;20189;-77
2023/12/26 03:19:05;;;;;;;23.33;3.30;;;;;;;7.77;100.00;100326.91;4994836;28;20443;-76
2023/12/26 03:21:30;;;;;;;14.60;2.60;;;;;;;8.09;100.00;100372.75;5008115;28;20194;-77
2023/12/26 03:23:56;;;;;;;16.17;3.20;;;;;;;6.98;100.00;100239.78;5008309;28;20452;-77
2023/12/26 03:26:22;;;;;;;14.20;2.27;;;;;;;7.27;100.00;100302.03;4996745;28;20275;-77
2023/12/26 03:28:47;;;;;;;14.50;2.73;;;;;;;7.91;100.00;100416.78;5009038;28;20185;-78
2023/12/26 03:31:13;;;;;;;13.67;2.37;;;;;;;7.68;100.00;100336.06;5006847;28;20495;-77
2023/12/26 03:33:38;;;;;;;;;;;;;;;8.85;100.00;100562.72;5008338;28;20192;-77
2023/12/26 03:36:04;;;;;;;;;;;;;;;8.86;100.00;100568.94;5010141;28;19913;-77
2023/12/26 03:38:29;;;;;;;;;;;;;;;8.75;100.00;100595.16;5005327;28;20004;-77
2023/12/26 03:40:55;;;;;;;15.50;2.80;;;;;;;7.87;100.00;100468.13;4990528;28;20037;-76
2023/12/26 03:43:23;;;;;;;16.70;2.20;;;;;;;7.20;100.00;100376.66;4990900;28;20272;-76
2023/12/26 03:45:49;;;;;;;12.57;2.27;;;;;;;7.21;100.00;100385.47;5007306;28;20255;-76
2023/12/26 03:48:15;;;;;;;16.90;3.15;;;;;;;7.59;100.00;100436.81;5009730;28;20984;-76
2023/12/26 03:50:40;;;;;;;14.30;2.90;;;;;;;6.51;100.00;100282.94;5007876;28;20499;-76
2023/12/26 03:53:06;;;;;;;17.30;2.85;;;;;;;6.62;100.00;100322.41;4989346;28;20536;-76
2023/12/26 03:55:32;;;;;;;16.00;2.63;;;;;;;8.00;100.00;100561.72;5004332;28;19921;-77
2023/12/26 03:57:58;;;;;;;18.90;2.60;;;;;;;7.26;100.00;100433.75;5008922;28;20444;-77
2023/12/26 04:00:23;;;;;;;11.77;2.73;;;;;;;7.39;100.00;100454.44;4995260;28;20850;-77
2023/12/26 04:02:49;;;;;;;15.70;3.40;;;;;;;6.60;100.00;100347.63;5008238;28;20185;-77
2023/12/26 04:05:14;;;;;;;17.23;2.53;;;;;;;6.78;100.00;100401.34;5007422;28;20231;-77
2023/12/26 04:07:42;;;;;;;13.40;3.13;;;;;;;6.89;100.00;100411.56;4990752;28;20232;-77
2023/12/26 04:10:08;;;;;;;13.83;2.90;;;;;;;7.81;100.00;100578.31;5007666;28;20184;-77
2023/12/26 04:12:34;;;;;;;13.10;3.53;;;;;;;7.14;100.00;100456.56;5009239;28;20440;-77
2023/12/26 04:15:00;;;;;;;14.20;2.70;;;;;;;7.70;100.00;100547.63;5009476;28;20960;-77
2023/12/26 04:17:26;;;;;;;14.87;2.27;;;;;;;7.06;100.00;100480.66;5005639;28;20523;-77
2023/12/26 04:19:51;;;;;;;15.53;2.30;;;;;;;7.66;100.00;100592.50;5006126;28;20185;-77
2023/12/26 04:22:17;;;;;;;16.50;2.67;;;;;;;6.54;100.00;100419.28;4990114;28;20190;-77
2023/12/26 04:24:42;;;;;;;11.30;2.20;;;;;;;7.73;100.00;100610.50;5005304;28;20534;-77
2023/12/26 04:27:08;;;;;;;12.33;2.37;;;;;;;6.37;100.00;100380.50;5010653;28;21992;-77
2023/12/26 04:29:33;;;;;;;19.33;3.07;;;;;;;7.04;100.00;100512.88;4991094;28;20272;-77
2023/12/26 04:31:59;;;;;;;11.73;2.33;;;;;;;6.39;100.00;100426.41;4979495;28;20208;-77
2023/12/26 04:34:25;;;;;;;15.80;2.73;;;;;;;7.92;100.00;100708.69;5007035;28;20205;-77
2023/12/26 04:36:51;;;;;;;16.17;2.63;;;;;;;6.49;100.00;100450.97;5008309;28;20285;-77
2023/12/26 04:39:16;;;;;;;13.20;3.07;;;;;;;6.41;100.00;100474.19;5010118;28;20998;-77
2023/12/26 04:41:42;;;;;;;10.33;2.23;;;;;;;7.30;100.00;100639.66;4993218;28;20464;-77
2023/12/26 04:44:07;;;;;;;16.20;2.93;;;;;;;6.25;100.00;100504.44;5009739;28;20692;-77
2023/12/26 04:46:33;;;;;;;14.30;2.80;;;;;;;7.37;100.00;100708.09;5005914;28;20190;-77
2023/12/26 04:48:58;;;;;;;15.13;2.70;;;;;;;5.83;100.00;100441.84;5008852;28;20189;-77
2023/12/26 04:51:28;;;;;;;14.73;3.13;;;;;;;5.81;100.00;100478.44;4991558;28;20237;-77
2023/12/26 04:53:53;;;;;;;19.57;3.10;;;;;;;7.09;100.00;100673.19;5009558;28;20573;-77
2023/12/26 04:56:20;;;;;;;19.93;3.27;;;;;;;5.71;100.00;100464.56;4998373;28;20437;-77
2023/12/26 04:58:47;;;;;;;15.60;3.40;;;;;;;6.46;100.00;100613.84;5006090;28;20192;-76
2023/12/26 05:01:13;;;;;;;16.80;3.63;;;;;;;5.83;100.00;100514.53;5007729;28;20812;-77
2023/12/26 05:03:39;;;;;;;15.87;3.50;;;;;;;8.05;100.00;100850.47;5008744;28;20482;-76
2023/12/26 05:06:05;;;;;;;19.33;3.73;;;;;;;5.92;100.00;100541.09;5012665;28;20471;-77
2023/12/26 05:08:30;;;;;;;14.17;3.60;;;;;;;7.31;100.00;100753.34;4999184;28;20197;-77
2023/12/26 05:10:59;;;;;;;12.50;2.70;;;;;;;6.89;100.00;100699.50;5006398;28;20217;-77
2023/12/26 05:13:24;;;;;;;18.20;3.30;;;;;;;6.40;100.00;100621.72;5004938;28;21170;-77
2023/12/26 05:15:50;;;;;;;26.70;4.25;;;;;;;7.24;100.00;100742.56;5006115;28;20486;-77
2023/12/26 05:18:15;;;;;;;24.27;4.10;;;;;;;6.80;100.00;100681.91;5002889;28;20200;-77
2023/12/26 05:20:41;;;;;;;18.60;3.10;;;;;;;7.38;100.00;100805.84;4987502;28;20197;-77
2023/12/26 05:23:06;;;;;;;31.33;4.93;;;;;;;7.07;100.00;100752.53;4992272;28;20972;-77
2023/12/26 05:25:32;;;;;;;18.93;3.30;;;;;;;6.15;100.00;100573.94;5007178;28;20704;-77
2023/12/26 05:27:58;;;;;;;27.93;4.17;;;;;;;6.66;100.00;100720.00;4996348;28;20181;-77
2023/12/26 05:30:23;;;;;;;16.33;3.90;;;;;;;5.76;100.00;100534.06;5006658;28;20607;-77
2023/12/26 05:32:49;;;;;;;13.33;2.50;;;;;;;6.71;100.00;100738.94;5005674;28;20193;-77
2023/12/26 05:35:14;;;;;;;;;;;;;;;8.07;100.00;100914.38;5005935;28;20205;-77
2023/12/26 05:37:40;;;;;;;13.40;2.97;;;;;;;6.23;100.00;100602.34;4992888;28;20007;-77
2023/12/26 05:40:06;;;;;;;22.30;4.73;;;;;;;6.47;100.00;100660.78;5006377;28;20796;-77
2023/12/26 05:42:31;;;;;;;17.83;3.30;;;;;;;6.21;100.00;100633.66;5003386;28;20197;-77
2023/12/26 05:44:57;;;;;;;16.73;3.97;;;;;;;7.05;100.00;100767.88;5004223;28;20538;-77
2023/12/26 05:47:22;;;;;;;27.10;3.80;;;;;;;6.17;100.00;100635.03;5004978;28;20186;-77
2023/12/26 05:49:48;;;;;;;19.53;3.40;;;;;;;6.21;100.00;100628.34;4990859;28;20188;-77
2023/12/26 05:52:13;;;;;;;17.50;3.27;;;;;;;7.05;100.00;100757.22;5004341;28;20208;-77
2023/12/26 05:54:39;;;;;;;17.50;3.57;;;;;;;5.97;100.00;100614.16;5006128;28;20811;-76
2023/12/26 05:57:04;;;;;;;19.60;3.03;;;;;;;6.40;100.00;100689.16;4988491;28;20654;-76
2023/12/26 05:59:29;;;;;;;20.30;4.10;;;;;;;6.46;100.00;100683.13;4991580;28;20184;-76
2023/12/26 06:01:55;;;;;;;12.90;2.40;;;;;;;6.72;100.00;100720.13;5008784;28;20559;-77
2023/12/26 06:04:20;;;;;;;21.77;4.63;;;;;;;6.26;100.00;100671.25;5005450;28;20240;-76
2023/12/26 06:06:46;;;;;;;20.20;3.43;;;;;;;6.83;100.00;100753.53;5002194;28;20185;-76
2023/12/26 06:09:11;;;;;;;19.60;3.83;;;;;;;7.74;100.00;100893.31;5004354;28;20189;-76
2023/12/26 06:11:37;;;;;;;18.90;2.93;;;;;;;6.66;100.00;100746.66;4990756;28;20304;-76
2023/12/26 06:14:05;;;;;;;16.80;3.33;;;;;;;6.36;100.00;100671.03;4990494;28;20217;-77
2023/12/26 06:16:31;;;;;;;17.20;3.00;;;;;;;6.33;100.00;100698.84;5008458;28;20200;-76
2023/12/26 06:18:56;;;;;;;15.90;3.30;;;;;;;5.73;100.00;100667.44;5009068;28;20444;-77
2023/12/26 06:21:22;;;;;;;16.27;3.17;;;;;;;7.27;100.00;100856.94;5007956;28;20177;-77
2023/12/26 06:23:48;;;;;;;15.27;3.17;;;;;;;6.98;100.00;100845.09;4989013;28;20231;-77
2023/12/26 06:26:13;;;;;;;20.63;3.47;;;;;;;6.23;100.00;100700.91;4991184;28;20858;-77
2023/12/26 06:28:39;;;;;;;18.20;3.00;;;;;;;6.26;100.00;100719.19;5008432;28;20326;-76
2023/12/26 06:31:05;;;;;;;16.00;2.70;;;;;;;6.43;100.00;100726.13;5002338;28;20784;-77
2023/12/26 06:33:30;;;;;;;20.60;3.67;;;;;;;8.26;100.00;101060.88;5003671;28;20203;-76
2023/12/26 06:35:55;;;;;;;15.67;3.97;;;;;;;6.45;100.00;100764.09;4990969;28;20189;-76
2023/12/26 06:38:21;;;;;;;16.33;3.90;;;;;;;7.03;100.00;100828.59;5011786;28;20198;-76
2023/12/26 06:40:47;;;;;;;15.27;3.13;;;;;;;7.49;100.00;100903.31;5009006;28;20188;-77
2023/12/26 06:43:15;;;;;;;19.27;4.13;;;;;;;7.01;100.00;100875.94;4998012;28;20182;-76
2023/12/26 06:45:40;;;;;;;17.57;3.63;;;;;;;6.86;100.00;100821.69;5011700;28;20213;-76
2023/12/26 06:48:06;;;;;;;18.60;3.27;;;;;;;6.97;100.00;100855.94;5009514;28;20449;-76
2023/12/26 06:50:31;;;;;;;15.43;3.10;;;;;;;6.28;100.00;100730.53;4995118;28;20232;-76
2023/12/26 06:52:57;;;;;;;14.30;3.23;;;;;;;6.14;100.00;100685.97;4993740;28;20275;-76
2023/12/26 06:55:22;;;;;;;14.33;2.73;;;;;;;6.67;100.00;100759.78;5009288;28;20205;-76
2023/12/26 06:57:48;;;;;;;13.63;2.57;;;;;;;7.50;100.00;100901.50;5011139;28;20189;-76
2023/12/26 07:00:17;;;;;;;15.23;3.03;;;;;;;6.31;100.00;100716.84;5011489;28;20248;-76
2023/12/26 07:02:43;;;;;;;12.93;3.13;;;;;;;6.31;100.00;100707.03;4991800;28;20205;-76
2023/12/26 07:05:08;;;;;;;16.60;2.77;;;;;;;6.09;100.00;100679.31;4996144;28;20510;-76
2023/12/26 07:07:34;;;;;;;17.63;3.00;;;;;;;6.87;100.00;100831.34;5010191;28;20957;-76
2023/12/26 07:09:59;;;;;;;15.87;2.43;;;;;;;6.72;100.00;100818.75;5012431;28;21556;-76
2023/12/26 07:12:25;;;;;;;11.97;2.80;;;;;;;5.99;100.00;100713.31;5008719;28;20212;-76
2023/12/26 07:14:50;;;;;;;18.03;2.73;;;;;;;6.70;100.00;100819.91;5009524;28;20299;-76
2023/12/26 07:17:16;;;;;;;16.73;3.20;;;;;;;6.94;100.00;100865.13;4992847;28;20595;-76
2023/12/26 07:19:41;;;;;;;16.40;3.47;;;;;;;6.50;100.00;100752.88;5010417;28;20197;-76
2023/12/26 07:22:07;;;;;;;13.10;2.70;;;;;;;6.08;100.00;100708.78;5007898;28;20208;-76
2023/12/26 07:24:32;;;;;;;15.77;3.83;;;;;;;5.80;100.00;100698.53;5006526;28;20680;-76
2023/12/26 07:26:58;;;;;;;10.90;2.70;;;;;;;7.95;100.00;101046.72;5007839;28;20319;-76
2023/12/26 07:29:27;;;;;;;13.53;2.63;;;;;;;6.35;100.00;100798.06;4991101;28;20185;-76
2023/12/26 07:31:52;;;;;;;20.30;3.87;;;;;;;7.91;100.00;101017.69;5013485;28;20294;-76
2023/12/26 07:34:18;;;;;;;14.13;2.80;;;;;;;6.79;100.00;100837.53;5010718;28;20557;-76
2023/12/26 07:36:43;;;;;;;16.20;3.80;;;;;;;6.75;100.00;100879.72;4988628;28;20341;-76
2023/12/26 07:39:09;;;;;;;16.97;2.97;;;;;;;5.95;100.00;100743.94;4986879;28;20192;-76
2023/12/26 07:41:35;;;;;;;17.47;3.57;;;;;;;6.10;100.00;100746.72;4985715;28;20189;-76
2023/12/26 07:44:00;;;;;;;13.67;3.77;;;;;;;6.81;100.00;100901.34;5009506;28;20215;-76
2023/12/26 07:46:25;;;;;;;15.23;3.00;;;;;;;7.68;100.00;101017.66;5005503;28;20189;-76
2023/12/26 07:48:51;;;;;;;19.37;3.90;;;;;;;6.41;100.00;100856.00;5007183;28;20185;-76
2023/12/26 07:51:16;;;;;;;14.90;3.13;;;;;;;6.07;100.00;100758.53;5010051;28;20217;-76
2023/12/26 07:53:42;;;;;;;20.37;3.07;;;;;;;5.90;100.00;100756.88;5006800;28;20209;-76
2023/12/26 07:56:07;;;;;;;16.57;2.90;;;;;;;6.29;100.00;100836.06;4988281;28;20197;-76
2023/12/26 07:58:34;;;;;;;14.53;2.67;;;;;;;6.46;100.00;100885.63;5006318;28;20189;-76
2023/12/26 08:01:01;;;;;;;18.43;3.23;;;;;;;6.07;100.00;100826.94;5007415;28;20185;-76
2023/12/26 08:03:26;;;;;;;28.33;3.53;;;;;;;6.51;100.00;100927.78;5004745;28;20454;-76
2023/12/26 08:05:52;;;;;;;11.93;2.50;;;;;;;7.59;100.00;101089.97;5004357;28;20449;-76
2023/12/26 08:08:17;;;;;;;15.77;2.80;;;;;;;7.04;100.00;100979.59;5007699;28;20646;-76
2023/12/26 08:10:44;;;;;;;18.30;3.70;;;;;;;6.20;100.00;100866.38;5009702;28;20216;-76
2023/12/26 08:13:12;;;;;;;20.17;4.07;;;;;;;6.00;100.00;100836.63;4989723;28;20279;-75
2023/12/26 08:15:37;;;;;;;17.53;3.80;;;;;;;7.32;100.00;101049.38;4990984;28;20471;-76
2023/12/26 08:18:04;;;;;;;19.57;3.60;;;;;;;7.03;100.00;101020.63;5004176;28;20444;-76
2023/12/26 08:20:30;;;;;;;20.27;3.23;;;;;;;6.81;100.00;100984.00;5007605;28;20268;-76
2023/12/26 08:22:55;;;;;;;22.20;3.60;;;;;;;5.98;100.00;100849.25;5008531;28;20536;-76
2023/12/26 08:25:21;;;;;;;14.93;3.60;;;;;;;6.08;100.00;100871.22;4988950;28;20241;-76
2023/12/26 08:27:46;;;;;;;13.87;3.90;;;;;;;6.83;100.00;101009.50;5008352;28;20192;-75
2023/12/26 08:30:12;;;;;;;19.87;4.63;;;;;;;6.78;100.00;100979.84;5008197;28;20189;-76
2023/12/26 08:32:38;;;;;;;17.83;3.17;;;;;;;6.96;100.00;101020.44;4992729;28;20193;-76
2023/12/26 08:35:03;;;;;;;14.23;3.60;;;;;;;7.21;100.00;101071.06;4995732;28;20216;-76
2023/12/26 08:37:29;;;;;;;20.63;4.20;;;;;;;6.84;100.00;101005.81;5007692;28;20185;-76
2023/12/26 08:39:54;;;;;;;25.53;4.20;;;;;;;6.67;100.00;101005.00;5008313;28;20247;-76
2023/12/26 08:42:20;;;;;;;18.57;4.27;;;;;;;6.60;100.00;100974.72;5010194;28;20232;-75
2023/12/26 08:44:45;;;;;;;15.83;4.10;;;;;;;6.22;100.00;100947.78;5007582;28;20216;-76
2023/12/26 08:47:11;;;;;;;17.17;3.23;;;;;;;6.23;100.00;100943.28;4988838;28;20204;-75
2023/12/26 08:49:36;;;;;;;22.47;3.27;;;;;;;6.54;100.00;100997.53;5005867;28;20251;-76
2023/12/26 08:52:02;;;;;;;19.70;3.70;;;;;;;6.71;100.00;101029.50;4998008;28;20216;-76
2023/12/26 08:54:28;;;;;;;16.33;3.80;;;;;;;7.67;100.00;101183.38;5006211;28;20200;-75
2023/12/26 08:56:53;;;;;;;21.50;4.83;;;;;;;6.84;100.00;101031.66;5003561;28;20498;-75
2023/12/26 09:00:07;;;;;;;;;;;;;;;;;;;;;
2023/12/26 09:02:33;;;;;;;18.35;4.30;;;;;;;6.88;100.00;101063.13;5009140;28;20195;-76
2023/12/26 09:04:59;;;;;;;18.37;3.87;;;;;;;5.99;100.00;100907.69;4988160;28;20563;-75
2023/12/26 09:07:24;;;;;;;20.37;3.40;;;;;;;7.49;100.00;101164.88;5003129;28;20580;-75
2023/12/26 09:09:50;;;;;;;15.80;3.10;;;;;;;6.68;100.00;101028.03;5004339;28;20456;-75
2023/12/26 09:12:15;;;;;;;18.17;2.97;;;;;;;6.87;100.00;101090.81;5002827;28;20716;-75
2023/12/26 09:14:41;;;;;;;18.50;3.47;;;;;;;7.02;100.00;101104.28;4986953;28;20216;-76
2023/12/26 09:17:07;;;;;;;28.97;4.77;;;;;;;6.39;100.00;100993.88;5008476;28;20212;-76
2023/12/26 09:19:33;;;;;;;21.47;3.97;;;;;;;6.14;100.00;100942.47;5005969;28;20282;-76
2023/12/26 09:21:58;;;;;;;18.63;3.33;;;;;;;6.26;100.00;100977.59;5008047;28;20467;-76
2023/12/26 09:24:24;;;;;;;15.83;3.73;;;;;;;6.78;100.00;101068.66;4988259;28;20205;-77
2023/12/26 09:26:49;;;;;;;13.83;2.80;;;;;;;7.42;100.00;101185.25;5007304;28;20192;-76
2023/12/26 09:29:15;;;;;;;13.30;2.47;;;;;;;6.97;100.00;101130.63;4998385;28;20554;-76
2023/12/26 09:31:40;;;;;;;15.30;3.20;;;;;;;6.47;100.00;101049.84;5006653;28;20213;-76
2023/12/26 09:34:05;;;;;;;22.90;3.60;;;;;;;6.31;100.00;100997.41;5006094;28;20292;-76
2023/12/26 09:36:31;;;;;;;16.57;2.77;;;;;;;8.32;100.00;101362.16;5004333;28;20197;-76
2023/12/26 09:38:56;;;;;;;16.70;2.87;;;;;;;6.87;100.00;101140.63;5005029;28;20189;-76
2023/12/26 09:41:26;;;;;;;20.67;4.07;;;;;;;6.11;100.00;100990.75;5009303;28;20263;-76
2023/12/26 09:43:56;;;;;;;14.70;3.63;;;;;;;6.65;100.00;101116.28;4989175;28;20210;-76
2023/12/26 09:46:22;;;;;;;16.87;3.00;;;;;;;6.08;100.00;101002.53;4994686;28;20427;-76
2023/12/26 09:48:47;;;;;;;18.80;3.63;;;;;;;6.36;100.00;101058.16;5004373;28;20492;-76
2023/12/26 09:51:23;;;;;;;17.00;3.10;;;;;;;8.19;100.00;101355.69;5089323;23;20232;-73
2023/12/26 09:53:56;;;;;;;13.77;3.73;;;;;;;8.31;100.00;101362.34;4989415;28;20199;-73
2023/12/26 09:56:23;;;;;;;15.20;3.10;;;;;;;8.34;100.00;101386.06;4966760;28;20499;-72
2023/12/26 09:58:49;;;;;;;19.27;3.70;;;;;;;7.76;100.00;101297.16;4984652;28;20455;-72
2023/12/26 10:01:14;;;;;;;21.10;3.43;;;;;;;8.31;100.00;101389.91;4990095;28;20432;-72
2023/12/26 10:03:41;;;;;;;13.37;3.03;;;;;;;8.27;100.00;101379.72;4989693;28;21564;-72
2023/12/26 10:06:08;;;;;;;26.73;3.10;;;;;;;7.83;100.00;101313.34;4987598;28;20185;-72
2023/12/26 10:08:33;;;;;;;19.93;2.77;;;;;;;8.32;100.00;101410.28;4997957;28;20440;-72
2023/12/26 10:10:59;;;;;;;11.67;2.80;;;;;;;8.33;100.00;101403.09;4970244;28;20862;-72
2023/12/26 10:13:25;;;;;;;21.17;3.87;;;;;;;7.89;100.00;101347.38;4993948;28;20232;-72
2023/12/26 10:15:50;;;;;;;13.00;2.43;;;;;;;7.77;100.00;101324.69;4974202;28;20207;-71
2023/12/26 10:18:18;;;;;;;18.23;3.20;;;;;;;8.22;100.00;101396.28;4995069;28;20223;-72
2023/12/26 10:20:44;;;;;;;28.60;3.67;;;;;;;8.00;100.00;101396.97;4997918;28;20271;-72
2023/12/26 10:23:11;;;;;;;22.67;4.20;;;;;;;8.00;100.00;101395.13;4991725;28;20531;-72
2023/12/26 10:25:36;;;;;;;14.90;3.00;;;;;;;7.89;100.00;101374.09;4988762;28;20231;-72
2023/12/26 10:28:02;;;;;;;21.10;3.67;;;;;;;8.23;100.00;101411.31;4979764;28;20459;-71
2023/12/26 10:30:28;;;;;;;25.13;4.03;;;;;;;8.18;100.00;101424.31;4996411;28;20221;-71
2023/12/26 10:33:00;;;;;;;16.03;3.30;;;;;;;8.37;100.00;101442.69;4999637;28;20297;-71
2023/12/26 10:35:26;;;;;;;22.63;3.77;;;;;;;8.22;100.00;101420.34;4976766;28;20495;-72
2023/12/26 10:37:55;;;;;;;17.17;3.20;;;;;;;8.10;100.00;101413.66;4995860;28;20459;-74
2023/12/26 10:40:20;;;;;;;20.57;4.00;;;;;;;8.40;100.00;101444.22;5003704;28;20243;-72
2023/12/26 10:42:49;;;;;;;15.43;3.53;;;;;;;7.48;100.00;101336.72;4994579;28;20456;-72
2023/12/26 10:45:18;;;;;;;10.73;2.83;;;;;;;8.41;100.00;101479.81;4998260;28;20195;-72
2023/12/26 10:47:48;;;;;;;19.23;3.10;;;;;;;8.45;100.00;101483.81;4991736;28;20824;-72
2023/12/26 10:50:16;;;;;;;14.93;3.07;;;;;;;8.22;100.00;101436.38;4983727;28;21225;-71
2023/12/26 10:53:06;;;;;;;21.97;3.67;;;;;;;8.40;100.00;101488.84;5001441;28;20474;-73
2023/12/26 10:55:33;;;;;;;21.57;3.13;;;;;;;8.32;100.00;101473.59;4981526;28;20534;-72
2023/12/26 10:58:29;;;;;;;19.47;3.37;;;;;;;8.42;100.00;101470.78;4996197;28;20463;-72
2023/12/26 11:00:55;;;;;;;19.67;3.60;;;;;;;8.33;100.00;101483.28;4979994;28;20871;-72
2023/12/26 13:51:59;;;;;;;7.60;1.20;;;;;;;7.72;100.00;101578.03;4989532;28;20498;-72
2023/12/26 13:54:25;;;;;;;5.90;1.00;;;;;;;7.65;100.00;101580.53;4988131;28;20564;-72
2023/12/26 13:56:50;;;;;;;10.60;1.17;;;;;;;7.13;100.00;101527.28;4987073;28;20561;-72
2023/12/26 13:59:15;;;;;;;7.17;1.43;;;;;;;7.17;100.00;101526.78;4992617;28;20187;-72
2023/12/26 14:01:41;;;;;;;7.63;1.33;;;;;;;7.50;100.00;101591.00;4969422;28;20864;-73
2023/12/26 14:04:06;;;;;;;13.67;1.87;;;;;;;7.12;100.00;101558.44;4971619;28;20723;-72
2023/12/26 14:06:33;;;;;;;9.80;1.30;;;;;;;7.22;100.00;101609.03;4972476;28;20267;-72
2023/12/26 14:08:58;;;;;;;8.70;1.53;;;;;;;7.45;100.00;101615.47;4988695;28;20296;-72
2023/12/26 14:11:26;;;;;;;8.27;1.67;;;;;;;7.22;100.00;101607.19;4989595;28;20530;-72